createdAt,value
2018-11-04T00:01:12.582Z,22.70
2018-11-04T00:03:41.618Z,23.60
2018-11-04T00:06:10.830Z,21.87
2018-11-04T00:08:39.806Z,21.43
2018-11-04T00:11:09.327Z,24.00
2018-11-04T00:13:38.357Z,21.23
2018-11-04T00:16:07.556Z,23.83
2018-11-04T00:18:36.664Z,22.80
2018-11-04T00:21:05.982Z,22.37
2018-11-04T00:23:35.007Z,22.57
2018-11-04T00:26:04.144Z,23.57
2018-11-04T00:28:33.193Z,25.37
2018-11-04T00:31:02.288Z,24.80
2018-11-04T00:33:31.276Z,24.40
2018-11-04T00:36:00.290Z,24.73
2018-11-04T00:38:29.616Z,23.43
2018-11-04T00:40:58.613Z,20.90
2018-11-04T00:43:27.650Z,24.33
2018-11-04T00:45:56.623Z,20.80
2018-11-04T00:48:25.675Z,22.13
2018-11-04T00:50:54.646Z,23.43
2018-11-04T00:53:23.712Z,20.63
2018-11-04T00:55:55.567Z,23.67
2018-11-04T00:58:25.795Z,23.40
2018-11-04T01:00:55.080Z,22.87
2018-11-04T01:03:24.325Z,23.07
2018-11-04T01:05:53.549Z,21.40
2018-11-04T01:08:22.543Z,20.40
2018-11-04T01:10:51.663Z,21.10
2018-11-04T01:13:20.896Z,22.50
2018-11-04T01:15:49.949Z,23.13
2018-11-04T01:18:19.254Z,23.63
2018-11-04T01:20:48.258Z,21.77
2018-11-04T01:23:17.311Z,23.43
2018-11-04T01:25:46.490Z,23.10
2018-11-04T01:28:15.454Z,23.93
2018-11-04T01:30:44.426Z,20.97
2018-11-04T01:33:13.422Z,24.20
2018-11-04T01:35:42.609Z,22.93
2018-11-04T01:38:11.567Z,24.70
2018-11-04T01:40:40.607Z,24.50
2018-11-04T01:43:09.581Z,22.07
2018-11-04T01:45:39.207Z,23.40
2018-11-04T01:48:08.198Z,24.87
2018-11-04T01:50:37.190Z,24.50
2018-11-04T01:53:06.422Z,26.40
2018-11-04T01:55:35.748Z,29.40
2018-11-04T01:58:04.726Z,36.27
2018-11-04T02:00:33.759Z,27.17
2018-11-04T02:03:02.759Z,26.57
2018-11-04T02:05:32.051Z,27.00
2018-11-04T02:08:01.019Z,25.47
2018-11-04T02:10:30.248Z,25.37
2018-11-04T02:12:59.368Z,26.77
2018-11-04T02:15:28.322Z,28.17
2018-11-04T02:17:57.765Z,27.13
2018-11-04T02:20:27.019Z,27.20
2018-11-04T02:22:56.226Z,26.87
2018-11-04T02:25:25.217Z,30.23
2018-11-04T02:27:54.305Z,29.50
2018-11-04T02:30:23.413Z,29.23
2018-11-04T02:32:52.395Z,27.53
2018-11-04T02:35:21.669Z,31.33
2018-11-04T02:37:50.654Z,32.17
2018-11-04T02:40:19.681Z,30.57
2018-11-04T02:42:48.707Z,28.93
2018-11-04T02:45:18.394Z,27.47
2018-11-04T02:47:47.694Z,29.00
2018-11-04T02:50:17.025Z,30.77
2018-11-04T02:52:45.901Z,29.43
2018-11-04T02:55:15.201Z,31.70
2018-11-04T02:57:44.169Z,29.57
2018-11-04T03:00:14.583Z,30.47
2018-11-04T03:02:43.768Z,30.17
2018-11-04T03:05:12.806Z,30.50
2018-11-04T03:07:42.580Z,27.63
2018-11-04T03:10:12.986Z,29.23
2018-11-04T03:12:42.113Z,28.67
2018-11-04T03:15:11.350Z,30.80
2018-11-04T03:17:40.314Z,32.83
2018-11-04T03:20:09.523Z,29.37
2018-11-04T03:22:38.741Z,29.37
2018-11-04T03:25:08.216Z,30.30
2018-11-04T03:27:37.195Z,28.57
2018-11-04T03:30:07.847Z,30.40
2018-11-04T03:32:36.831Z,31.27
2018-11-04T03:35:05.941Z,28.37
2018-11-04T03:37:35.132Z,30.87
2018-11-04T03:40:04.321Z,29.60
2018-11-04T03:42:33.359Z,29.03
2018-11-04T03:45:02.344Z,31.47
2018-11-04T03:47:31.424Z,29.33
2018-11-04T03:50:00.698Z,32.47
2018-11-04T03:52:29.646Z,32.80
2018-11-04T03:54:58.622Z,30.13
2018-11-04T03:57:27.688Z,33.10
2018-11-04T03:59:56.730Z,32.13
2018-11-04T04:02:25.704Z,32.17
2018-11-04T04:04:54.759Z,32.87
2018-11-04T04:07:23.807Z,31.53
2018-11-04T04:09:52.958Z,32.00
2018-11-04T04:12:21.978Z,33.73
2018-11-04T04:14:51.071Z,30.90
2018-11-04T04:17:20.250Z,31.60
2018-11-04T04:19:49.242Z,35.07
2018-11-04T04:22:18.211Z,35.60
2018-11-04T04:24:47.177Z,33.17
2018-11-04T04:27:16.198Z,34.87
2018-11-04T04:29:45.173Z,32.33
2018-11-04T04:32:14.217Z,32.63
2018-11-04T04:34:43.212Z,31.90
2018-11-04T04:37:12.436Z,32.80
2018-11-04T04:39:41.406Z,34.70
2018-11-04T04:42:10.528Z,35.87
2018-11-04T04:44:39.498Z,33.40
2018-11-04T04:47:08.503Z,37.53
2018-11-04T04:49:37.503Z,35.63
2018-11-04T04:52:06.491Z,37.00
2018-11-04T04:54:35.470Z,36.27
2018-11-04T04:57:04.463Z,36.53
2018-11-04T04:59:33.449Z,40.40
2018-11-04T05:02:02.415Z,35.77
2018-11-04T05:04:31.613Z,37.93
2018-11-04T05:07:00.581Z,35.97
2018-11-04T05:09:29.778Z,34.80
2018-11-04T05:11:58.743Z,37.20
2018-11-04T05:14:27.709Z,37.10
2018-11-04T05:16:56.930Z,39.00
2018-11-04T05:19:25.907Z,34.53
2018-11-04T05:21:54.882Z,40.67
2018-11-04T05:24:23.900Z,37.33
2018-11-04T05:26:52.918Z,42.60
2018-11-04T05:29:21.881Z,38.37
2018-11-04T05:31:51.185Z,39.07
2018-11-04T05:34:20.448Z,39.30
2018-11-04T05:36:49.486Z,37.17
2018-11-04T05:39:18.450Z,41.97
2018-11-04T05:41:47.444Z,38.77
2018-11-04T05:44:16.448Z,38.90
2018-11-04T05:46:45.436Z,38.67
2018-11-04T05:49:14.759Z,39.70
2018-11-04T05:51:44.058Z,39.80
2018-11-04T05:54:13.359Z,37.83
2018-11-04T05:56:42.630Z,38.87
2018-11-04T05:59:11.604Z,37.17
2018-11-04T06:01:40.578Z,37.27
2018-11-04T06:04:09.563Z,39.80
2018-11-04T06:06:38.586Z,41.33
2018-11-04T06:09:09.055Z,40.07
2018-11-04T06:11:38.506Z,38.17
2018-11-04T06:14:08.531Z,40.07
2018-11-04T06:16:37.519Z,38.27
2018-11-04T06:19:06.570Z,38.07
2018-11-04T06:21:35.930Z,38.70
2018-11-04T06:24:05.035Z,39.00
2018-11-04T06:26:34.637Z,39.73
2018-11-04T06:29:03.839Z,39.73
2018-11-04T06:31:32.825Z,39.20
2018-11-04T06:34:02.034Z,41.47
2018-11-04T06:36:31.206Z,41.17
2018-11-04T06:39:00.308Z,44.10
2018-11-04T06:41:29.297Z,41.67
2018-11-04T06:43:58.261Z,40.43
2018-11-04T06:46:27.220Z,40.97
2018-11-04T06:48:56.208Z,43.60
2018-11-04T06:51:25.161Z,39.70
2018-11-04T06:53:54.442Z,39.73
2018-11-04T06:56:23.436Z,40.43
2018-11-04T06:58:52.730Z,41.93
2018-11-04T07:01:21.733Z,40.67
2018-11-04T07:04:08.129Z,42.70
2018-11-04T07:06:37.354Z,37.90
2018-11-04T07:09:08.476Z,40.47
2018-11-04T07:11:37.417Z,40.13
2018-11-04T07:14:06.679Z,39.53
2018-11-04T07:16:35.994Z,41.97
2018-11-04T07:19:05.049Z,39.77
2018-11-04T07:21:34.665Z,40.07
2018-11-04T07:24:04.525Z,42.83
2018-11-04T07:26:33.507Z,41.00
2018-11-04T07:29:02.482Z,41.97
2018-11-04T07:31:31.657Z,38.97
2018-11-04T07:34:00.655Z,38.33
2018-11-04T07:36:29.641Z,44.37
2018-11-04T07:38:58.619Z,39.10
2018-11-04T07:41:27.621Z,39.33
2018-11-04T07:43:56.593Z,43.83
2018-11-04T07:46:25.877Z,42.90
2018-11-04T07:48:54.911Z,45.50
2018-11-04T07:51:24.287Z,40.67
2018-11-04T07:53:53.322Z,41.90
2018-11-04T07:56:22.566Z,40.93
2018-11-04T07:58:51.672Z,37.97
2018-11-04T08:01:20.665Z,40.13
2018-11-04T08:03:49.636Z,43.90
2018-11-04T08:06:18.605Z,43.17
2018-11-04T08:08:47.640Z,40.83
2018-11-04T08:11:16.897Z,43.53
2018-11-04T08:13:45.889Z,39.93
2018-11-04T08:16:14.951Z,39.90
2018-11-04T08:18:43.947Z,42.97
2018-11-04T08:21:12.954Z,44.53
2018-11-04T08:23:41.927Z,40.90
2018-11-04T08:26:11.083Z,49.33
2018-11-04T08:28:40.321Z,42.57
2018-11-04T08:31:09.266Z,42.23
2018-11-04T08:33:38.281Z,47.17
2018-11-04T08:36:07.704Z,48.60
2018-11-04T08:38:36.681Z,44.27
2018-11-04T08:41:05.663Z,44.23
2018-11-04T08:43:34.646Z,48.27
2018-11-04T08:46:03.856Z,44.47
2018-11-04T08:48:32.865Z,45.07
2018-11-04T08:51:01.970Z,47.17
2018-11-04T08:53:31.199Z,41.33
2018-11-04T08:56:00.168Z,42.83
2018-11-04T08:58:29.257Z,42.00
2018-11-04T09:00:58.307Z,45.27
2018-11-04T09:03:27.307Z,43.80
2018-11-04T09:05:56.641Z,48.73
2018-11-04T09:08:25.749Z,47.17
2018-11-04T09:10:54.763Z,53.00
2018-11-04T09:13:24.307Z,49.87
2018-11-04T09:15:53.340Z,51.07
2018-11-04T09:18:22.912Z,48.40
2018-11-04T09:20:51.881Z,48.43
2018-11-04T09:23:21.212Z,50.60
2018-11-04T09:25:50.217Z,53.17
2018-11-04T09:28:19.497Z,53.07
2018-11-04T09:30:48.487Z,51.97
2018-11-04T09:33:17.683Z,47.60
2018-11-04T09:35:46.959Z,50.40
2018-11-04T09:38:15.746Z,46.93
2018-11-04T09:40:44.759Z,50.43
2018-11-04T09:43:14.197Z,46.80
2018-11-04T09:45:43.162Z,51.80
2018-11-04T09:48:12.578Z,49.33
2018-11-04T09:50:41.563Z,47.33
2018-11-04T09:53:10.562Z,47.97
2018-11-04T09:55:40.479Z,48.27
2018-11-04T09:58:10.118Z,51.90
2018-11-04T10:00:39.393Z,48.83
2018-11-04T10:03:08.452Z,48.73
2018-11-04T10:05:37.922Z,50.23
2018-11-04T10:08:07.085Z,50.70
2018-11-04T10:10:36.401Z,48.80
2018-11-04T10:13:05.528Z,48.40
2018-11-04T10:15:35.247Z,48.93
2018-11-04T10:18:04.237Z,53.93
2018-11-04T10:20:33.490Z,49.17
2018-11-04T10:23:02.238Z,51.30
2018-11-04T10:25:31.229Z,48.50
2018-11-04T10:28:00.511Z,46.73
2018-11-04T10:30:30.593Z,54.17
2018-11-04T10:32:59.518Z,50.93
2018-11-04T10:35:28.543Z,46.07
2018-11-04T10:37:57.623Z,45.33
2018-11-04T10:40:27.313Z,53.53
2018-11-04T10:42:56.377Z,51.20
2018-11-04T10:45:25.353Z,47.70
2018-11-04T10:47:54.576Z,52.33
2018-11-04T10:50:23.655Z,47.60
2018-11-04T10:52:52.624Z,51.43
2018-11-04T10:55:21.625Z,47.67
2018-11-04T10:57:51.413Z,63.10
2018-11-04T11:00:25.720Z,49.00
2018-11-04T11:02:54.788Z,48.13
2018-11-04T11:05:24.838Z,53.07
2018-11-04T11:07:53.977Z,51.07
2018-11-04T11:10:22.964Z,45.73
2018-11-04T11:12:52.026Z,54.80
2018-11-04T11:15:21.195Z,50.33
2018-11-04T11:17:50.217Z,48.63
2018-11-04T11:20:19.487Z,48.33
2018-11-04T11:22:48.619Z,48.40
2018-11-04T11:25:17.559Z,45.70
2018-11-04T11:27:46.555Z,47.87
2018-11-04T11:30:15.609Z,48.33
2018-11-04T11:32:44.590Z,48.07
2018-11-04T11:35:13.585Z,50.53
2018-11-04T11:37:42.593Z,51.63
2018-11-04T11:40:11.541Z,48.57
2018-11-04T11:42:40.615Z,48.40
2018-11-04T11:45:10.231Z,47.07
2018-11-04T11:47:39.348Z,52.43
2018-11-04T11:50:08.753Z,49.10
2018-11-04T11:52:38.424Z,54.43
2018-11-04T11:55:07.589Z,55.97
2018-11-04T11:57:36.873Z,50.20
2018-11-04T12:00:08.459Z,53.67
2018-11-04T12:02:38.662Z,52.80
2018-11-04T12:05:07.910Z,50.37
2018-11-04T12:07:36.909Z,48.13
2018-11-04T12:10:09.377Z,58.67
2018-11-04T12:12:38.728Z,49.63
2018-11-04T12:15:10.068Z,48.67
2018-11-04T12:17:39.119Z,54.33
2018-11-04T12:20:09.748Z,49.97
2018-11-04T12:22:38.804Z,52.70
2018-11-04T12:25:09.592Z,52.73
2018-11-04T12:27:38.600Z,55.73
2018-11-04T12:30:10.676Z,52.50
2018-11-04T12:32:40.197Z,51.03
2018-11-04T12:35:10.677Z,53.83
2018-11-04T12:37:39.609Z,55.20
2018-11-04T12:40:10.882Z,54.63
2018-11-04T12:42:40.034Z,54.33
2018-11-04T12:45:10.534Z,55.27
2018-11-04T12:47:39.575Z,52.27
2018-11-04T12:50:10.171Z,55.23
2018-11-04T12:52:39.278Z,50.43
2018-11-04T12:55:08.808Z,49.90
2018-11-04T12:57:37.890Z,54.80
2018-11-04T13:00:11.615Z,60.47
2018-11-04T13:02:40.797Z,58.13
2018-11-04T13:05:10.697Z,51.20
2018-11-04T13:07:39.799Z,54.43
2018-11-04T13:10:11.393Z,54.10
2018-11-04T13:12:40.595Z,51.57
2018-11-04T13:15:11.492Z,52.27
2018-11-04T13:17:40.794Z,51.27
2018-11-04T13:20:09.787Z,53.47
2018-11-04T13:22:39.098Z,56.57
2018-11-04T13:25:08.587Z,51.03
2018-11-04T13:27:37.571Z,53.23
2018-11-04T13:30:09.143Z,53.63
2018-11-04T13:32:38.350Z,50.40
2018-11-04T13:35:07.375Z,54.93
2018-11-04T13:37:36.392Z,59.00
2018-11-04T13:40:08.142Z,52.83
2018-11-04T13:42:37.241Z,52.80
2018-11-04T13:45:07.145Z,50.77
2018-11-04T13:47:36.402Z,55.10
2018-11-04T13:50:07.986Z,54.37
2018-11-04T13:52:37.002Z,53.93
2018-11-04T13:55:06.768Z,55.50
2018-11-04T13:57:35.878Z,52.00
2018-11-04T14:00:06.184Z,52.73
2018-11-04T14:02:35.168Z,56.20
2018-11-04T14:05:04.424Z,56.40
2018-11-04T14:07:33.680Z,52.57
2018-11-04T14:10:02.682Z,52.43
2018-11-04T14:12:31.698Z,54.73
2018-11-04T14:15:00.719Z,51.77
2018-11-04T14:17:29.769Z,52.90
2018-11-04T14:19:59.165Z,51.63
2018-11-04T14:22:28.242Z,54.90
2018-11-04T14:24:57.558Z,57.10
2018-11-04T14:27:26.614Z,51.07
2018-11-04T14:29:55.651Z,53.23
2018-11-04T14:32:24.665Z,50.60
2018-11-04T14:34:53.693Z,50.73
2018-11-04T14:37:22.751Z,56.00
2018-11-04T14:39:51.782Z,49.63
2018-11-04T14:42:20.826Z,54.13
2018-11-04T14:44:49.875Z,50.73
2018-11-04T14:47:19.428Z,59.23
2018-11-04T14:49:48.774Z,51.57
2018-11-04T14:52:17.895Z,50.93
2018-11-04T14:54:46.973Z,53.47
2018-11-04T14:57:16.217Z,51.57
2018-11-04T14:59:45.336Z,57.37
2018-11-04T15:02:14.504Z,52.27
2018-11-04T15:04:43.694Z,49.10
2018-11-04T15:07:12.685Z,48.10
2018-11-04T15:09:41.743Z,49.57
2018-11-04T15:12:10.912Z,53.90
2018-11-04T15:14:40.085Z,49.20
2018-11-04T15:17:09.065Z,54.10
2018-11-04T15:19:38.148Z,49.40
2018-11-04T15:22:07.222Z,48.93
2018-11-04T15:24:36.354Z,51.77
2018-11-04T15:27:05.696Z,51.93
2018-11-04T15:29:35.068Z,51.17
2018-11-04T15:32:04.064Z,57.67
2018-11-04T15:34:33.737Z,50.07
2018-11-04T15:37:02.769Z,48.40
2018-11-04T15:39:32.081Z,52.10
2018-11-04T15:42:01.402Z,50.50
2018-11-04T15:44:30.387Z,49.43
2018-11-04T15:46:59.517Z,49.73
2018-11-04T15:49:28.795Z,48.30
2018-11-04T15:51:58.305Z,55.70
2018-11-04T15:54:27.689Z,50.57
2018-11-04T15:57:00.966Z,49.93
2018-11-04T15:59:30.009Z,51.73
2018-11-04T16:01:59.078Z,50.70
2018-11-04T16:04:28.369Z,55.73
2018-11-04T16:06:57.447Z,54.30
2018-11-04T16:09:26.486Z,50.27
2018-11-04T16:11:55.678Z,56.50
2018-11-04T16:14:24.697Z,51.53
2018-11-04T16:16:54.669Z,63.13
2018-11-04T16:19:23.879Z,62.10
2018-11-04T16:21:52.919Z,62.53
2018-11-04T16:24:22.612Z,56.40
2018-11-04T16:26:51.814Z,57.63
2018-11-04T16:29:21.247Z,56.63
2018-11-04T16:31:50.637Z,57.90
2018-11-04T16:34:19.602Z,60.00
2018-11-04T16:36:48.815Z,57.60
2018-11-04T16:39:18.783Z,57.97
2018-11-04T16:41:48.297Z,53.33
2018-11-04T16:44:19.617Z,57.53
2018-11-04T16:46:48.660Z,55.57
2018-11-04T16:49:17.694Z,62.37
2018-11-04T16:51:46.903Z,57.87
2018-11-04T16:54:16.151Z,59.47
2018-11-04T16:56:45.747Z,61.57
2018-11-04T16:59:14.780Z,58.33
2018-11-04T17:01:43.870Z,68.90
2018-11-04T17:04:12.980Z,59.07
2018-11-04T17:06:41.892Z,61.50
2018-11-04T17:09:11.382Z,54.30
2018-11-04T17:11:40.574Z,59.33
2018-11-04T17:14:09.600Z,59.67
2018-11-04T17:16:38.977Z,59.87
2018-11-04T17:19:08.042Z,58.10
2018-11-04T17:21:37.130Z,60.23
2018-11-04T17:24:06.249Z,56.63
2018-11-04T17:26:35.346Z,54.83
2018-11-04T17:29:04.445Z,60.80
2018-11-04T17:31:33.470Z,55.27
2018-11-04T17:34:02.530Z,60.23
2018-11-04T17:36:31.731Z,56.00
2018-11-04T17:39:00.710Z,56.67
2018-11-04T17:41:29.969Z,57.90
2018-11-04T17:43:59.276Z,54.93
2018-11-04T17:46:28.341Z,54.33
2018-11-04T17:48:57.391Z,58.57
2018-11-04T17:51:26.486Z,60.60
2018-11-04T17:53:55.500Z,54.07
2018-11-04T17:56:24.758Z,59.47
2018-11-04T17:58:54.107Z,54.50
2018-11-04T18:01:23.117Z,59.17
2018-11-04T18:03:52.094Z,58.60
2018-11-04T18:06:21.310Z,58.40
2018-11-04T18:08:50.963Z,55.90
2018-11-04T18:11:20.159Z,61.00
2018-11-04T18:13:49.249Z,54.67
2018-11-04T18:16:18.586Z,56.33
2018-11-04T18:18:47.615Z,60.23
2018-11-04T18:21:16.599Z,52.73
2018-11-04T18:23:45.593Z,56.37
2018-11-04T18:26:14.825Z,56.03
2018-11-04T18:28:43.947Z,52.77
2018-11-04T18:31:13.023Z,59.70
2018-11-04T18:33:42.255Z,58.67
2018-11-04T18:36:11.274Z,53.60
2018-11-04T18:38:40.287Z,57.47
2018-11-04T18:41:09.302Z,57.87
2018-11-04T18:43:38.677Z,52.33
2018-11-04T18:46:07.782Z,49.37
2018-11-04T18:48:37.261Z,60.20
2018-11-04T18:51:06.599Z,56.70
2018-11-04T18:53:35.777Z,55.73
2018-11-04T18:56:05.102Z,58.03
2018-11-04T18:58:34.144Z,50.27
2018-11-04T19:01:03.201Z,55.93
2018-11-04T19:03:32.459Z,58.47
2018-11-04T19:06:02.096Z,50.80
2018-11-04T19:08:31.128Z,51.40
2018-11-04T19:11:00.179Z,55.17
2018-11-04T19:13:29.173Z,48.60
2018-11-04T19:15:58.209Z,51.47
2018-11-04T19:18:27.423Z,56.20
2018-11-04T19:20:56.539Z,50.17
2018-11-04T19:23:26.163Z,49.17
2018-11-04T19:25:55.546Z,65.90
2018-11-04T19:28:24.580Z,49.13
2018-11-04T19:30:53.628Z,50.93
2018-11-04T19:33:22.635Z,47.73
2018-11-04T19:35:52.200Z,42.83
2018-11-04T19:38:21.212Z,52.80
2018-11-04T19:40:50.250Z,47.90
2018-11-04T19:43:19.705Z,45.27
2018-11-04T19:45:50.437Z,43.37
2018-11-04T19:48:19.939Z,51.63
2018-11-04T19:50:50.181Z,42.47
2018-11-04T19:53:19.134Z,48.07
2018-11-04T19:55:48.157Z,46.37
2018-11-04T19:58:17.148Z,43.53
2018-11-04T20:00:46.147Z,45.57
2018-11-04T20:03:15.547Z,45.03
2018-11-04T20:05:44.944Z,43.17
2018-11-04T20:08:13.978Z,50.60
2018-11-04T20:10:43.015Z,43.27
2018-11-04T20:13:17.419Z,39.77
2018-11-04T20:15:46.417Z,47.07
2018-11-04T20:18:20.879Z,44.97
2018-11-04T20:20:49.864Z,43.73
2018-11-04T20:23:18.976Z,62.13
2018-11-04T20:25:53.258Z,48.80
2018-11-04T20:28:22.219Z,41.80
2018-11-04T20:30:51.213Z,47.87
2018-11-04T20:33:20.486Z,41.57
2018-11-04T20:35:49.743Z,40.67
2018-11-04T20:38:18.747Z,46.50
2018-11-04T20:40:53.051Z,44.63
2018-11-04T20:43:22.077Z,42.93
2018-11-04T20:45:53.424Z,43.77
2018-11-04T20:48:28.478Z,42.93
2018-11-04T20:50:58.201Z,42.90
2018-11-04T20:53:28.182Z,42.57
2018-11-04T20:56:02.439Z,44.10
2018-11-04T20:58:32.574Z,44.47
2018-11-04T21:01:02.063Z,42.13
2018-11-04T21:03:31.333Z,44.03
2018-11-04T21:06:00.801Z,45.20
2018-11-04T21:08:31.170Z,42.93
2018-11-04T21:11:00.484Z,41.57
2018-11-04T21:13:30.925Z,41.67
2018-11-04T21:16:00.295Z,41.87
2018-11-04T21:18:29.983Z,45.37
2018-11-04T21:20:59.683Z,42.30
2018-11-04T21:23:29.130Z,40.33
2018-11-04T21:25:58.923Z,39.43
2018-11-04T21:28:29.731Z,42.47
2018-11-04T21:30:59.093Z,41.50
2018-11-04T21:33:28.198Z,44.47
2018-11-04T21:36:00.381Z,42.63
2018-11-04T21:38:30.711Z,41.27
2018-11-04T21:40:59.843Z,42.73
2018-11-04T21:43:29.020Z,45.17
2018-11-04T21:45:57.843Z,44.00
2018-11-04T21:48:27.138Z,43.80
2018-11-04T21:50:56.505Z,41.50
2018-11-04T21:53:25.916Z,42.93
2018-11-04T21:55:55.311Z,40.10
2018-11-04T21:58:24.222Z,44.30
2018-11-04T22:00:53.213Z,45.17
2018-11-04T22:03:22.470Z,39.37
2018-11-04T22:05:51.521Z,40.73
2018-11-04T22:08:20.750Z,43.87
2018-11-04T22:10:49.730Z,45.27
2018-11-04T22:13:18.703Z,42.27
2018-11-04T22:15:47.940Z,45.37
2018-11-04T22:18:16.907Z,39.73
2018-11-04T22:20:46.106Z,41.10
2018-11-04T22:23:15.133Z,43.63
2018-11-04T22:25:44.108Z,45.23
2018-11-04T22:28:13.399Z,43.13
2018-11-04T22:30:45.094Z,42.30
2018-11-04T22:33:14.910Z,41.93
2018-11-04T22:35:44.891Z,42.67
2018-11-04T22:38:13.934Z,45.43
2018-11-04T22:40:42.949Z,45.47
2018-11-04T22:43:12.227Z,45.50
2018-11-04T22:45:41.205Z,44.77
2018-11-04T22:48:10.210Z,44.67
2018-11-04T22:50:39.189Z,43.10
2018-11-04T22:53:08.406Z,43.87
2018-11-04T22:55:37.658Z,43.23
2018-11-04T22:58:09.104Z,45.13
2018-11-04T23:00:41.404Z,42.67
2018-11-04T23:03:10.837Z,42.10
2018-11-04T23:05:39.826Z,42.03
2018-11-04T23:08:09.373Z,44.00
2018-11-04T23:10:38.531Z,48.33
2018-11-04T23:13:07.975Z,44.57
2018-11-04T23:15:36.953Z,44.20
2018-11-04T23:18:05.966Z,45.27
2018-11-04T23:20:36.342Z,45.77
2018-11-04T23:23:05.585Z,48.20
2018-11-04T23:25:34.816Z,44.63
2018-11-04T23:28:03.779Z,48.67
2018-11-04T23:30:32.763Z,47.90
2018-11-04T23:33:02.087Z,50.10
2018-11-04T23:35:31.089Z,46.93
2018-11-04T23:38:00.127Z,46.97
2018-11-04T23:40:29.134Z,46.33
2018-11-04T23:42:58.417Z,49.13
2018-11-04T23:45:27.415Z,51.03
2018-11-04T23:47:56.365Z,49.63
2018-11-04T23:50:25.357Z,47.00
2018-11-04T23:52:54.701Z,50.60
2018-11-04T23:55:23.669Z,46.43
2018-11-04T23:57:52.621Z,47.17
